createdAt,value
2022-11-22T00:00:11.745Z,50.885612
2022-11-22T00:01:11.764Z,50.885651
2022-11-22T00:02:11.779Z,50.885632
2022-11-22T00:03:11.763Z,50.885590
2022-11-22T00:04:11.708Z,50.885834
2022-11-22T00:05:11.767Z,50.885590
2022-11-22T00:06:11.771Z,50.885715
2022-11-22T00:07:11.742Z,50.885624
2022-11-22T00:08:11.681Z,50.885433
2022-11-22T00:09:12.254Z,50.885494
2022-11-22T00:10:11.721Z,50.885849
2022-11-22T00:11:11.684Z,50.885735
2022-11-22T00:12:11.695Z,50.885670
2022-11-22T00:13:11.669Z,50.885609
2022-11-22T00:14:11.673Z,50.885632
2022-11-22T00:15:11.683Z,50.885738
2022-11-22T00:16:11.652Z,50.885635
2022-11-22T00:17:11.662Z,50.885571
2022-11-22T00:18:11.649Z,50.885696
2022-11-22T00:19:11.631Z,50.885715
2022-11-22T00:20:11.628Z,50.885624
2022-11-22T00:21:11.654Z,50.885494
2022-11-22T00:22:11.647Z,50.885784
2022-11-22T00:23:11.626Z,50.885750
2022-11-22T00:24:12.164Z,50.885754
2022-11-22T00:25:11.609Z,50.885555
2022-11-22T00:26:11.614Z,50.885612
2022-11-22T00:27:11.598Z,50.885460
2022-11-22T00:28:11.647Z,50.885452
2022-11-22T00:29:11.554Z,50.885166
2022-11-22T00:30:11.617Z,50.885448
2022-11-22T00:31:11.631Z,50.885494
2022-11-22T00:32:11.571Z,50.885582
2022-11-22T00:33:11.603Z,50.885651
2022-11-22T00:34:11.560Z,50.885715
2022-11-22T00:35:11.594Z,50.885571
2022-11-22T00:36:11.768Z,50.885609
2022-11-22T00:37:11.757Z,50.885693
2022-11-22T00:38:11.554Z,50.885582
2022-11-22T00:39:11.531Z,50.885376
2022-11-22T00:40:11.518Z,50.885414
2022-11-22T00:41:11.560Z,50.885498
2022-11-22T00:42:11.572Z,50.885498
2022-11-22T00:43:11.560Z,50.885517
2022-11-22T00:44:11.549Z,50.885574
2022-11-22T00:45:11.474Z,50.885635
2022-11-22T00:46:11.608Z,50.885586
2022-11-22T00:47:11.592Z,50.885628
2022-11-22T00:48:11.554Z,50.885628
2022-11-22T00:49:11.473Z,50.885578
2022-11-22T00:50:11.497Z,50.885582
2022-11-22T00:51:11.497Z,50.885578
2022-11-22T00:52:11.496Z,50.885605
2022-11-22T00:53:11.569Z,50.885731
2022-11-22T00:54:11.461Z,50.885788
2022-11-22T00:55:11.450Z,50.885742
2022-11-22T00:56:11.447Z,50.885712
2022-11-22T00:57:12.478Z,50.885422
2022-11-22T00:58:11.549Z,50.885277
2022-11-22T00:59:11.440Z,50.885479
2022-11-22T01:00:11.439Z,50.885391
2022-11-22T01:01:11.493Z,50.885620
2022-11-22T01:02:11.447Z,50.885590
2022-11-22T01:03:12.543Z,50.885513
2022-11-22T01:04:11.425Z,50.885571
2022-11-22T01:05:11.388Z,50.885563
2022-11-22T01:06:11.362Z,50.885494
2022-11-22T01:07:11.429Z,50.885555
2022-11-22T01:08:11.392Z,50.885227
2022-11-22T01:09:11.391Z,50.885330
2022-11-22T01:10:11.397Z,50.885418
2022-11-22T01:11:11.397Z,50.885418
2022-11-22T01:12:11.391Z,50.885452
2022-11-22T01:13:11.375Z,50.885620
2022-11-22T01:14:11.378Z,50.885731
2022-11-22T01:15:11.313Z,50.885612
2022-11-22T01:16:11.379Z,50.885529
2022-11-22T01:17:11.334Z,50.885452
2022-11-22T01:18:11.355Z,50.885529
2022-11-22T01:19:11.318Z,50.885315
2022-11-22T01:20:11.338Z,50.885468
2022-11-22T01:21:11.283Z,50.885708
2022-11-22T01:22:11.292Z,50.885712
2022-11-22T01:23:11.325Z,50.885628
2022-11-22T01:24:11.296Z,50.885654
2022-11-22T01:25:11.314Z,50.885578
2022-11-22T01:26:11.289Z,50.885654
2022-11-22T01:27:11.370Z,50.885635
2022-11-22T01:28:11.285Z,50.885574
2022-11-22T01:29:11.287Z,50.885540
2022-11-22T01:30:11.247Z,50.885544
2022-11-22T01:31:11.364Z,50.885529
2022-11-22T01:32:11.280Z,50.885521
2022-11-22T01:33:11.292Z,50.885574
2022-11-22T01:34:11.247Z,50.885551
2022-11-22T01:35:11.256Z,50.885693
2022-11-22T01:36:11.327Z,50.885662
2022-11-22T01:37:11.230Z,50.885593
2022-11-22T01:38:11.206Z,50.885456
2022-11-22T01:39:11.231Z,50.885609
2022-11-22T01:40:11.195Z,50.885658
2022-11-22T01:41:11.201Z,50.885628
2022-11-22T01:42:11.311Z,50.885662
2022-11-22T01:43:11.221Z,50.885620
2022-11-22T01:44:11.194Z,50.885551
2022-11-22T01:45:11.166Z,50.885651
2022-11-22T01:46:11.174Z,50.885658
2022-11-22T01:47:11.310Z,50.885586
2022-11-22T01:48:11.173Z,50.885632
2022-11-22T01:49:11.180Z,50.885651
2022-11-22T01:50:11.166Z,50.885635
2022-11-22T01:51:11.134Z,50.885647
2022-11-22T01:52:11.132Z,50.885639
2022-11-22T01:53:11.195Z,50.885548
2022-11-22T01:54:11.168Z,50.885574
2022-11-22T01:55:11.125Z,50.885475
2022-11-22T01:56:11.141Z,50.885448
2022-11-22T01:57:11.128Z,50.885563
2022-11-22T01:58:11.114Z,50.885578
2022-11-22T01:59:11.113Z,50.885498
2022-11-22T02:00:11.170Z,50.885571
2022-11-22T02:01:11.207Z,50.885544
2022-11-22T02:02:11.134Z,50.885498
2022-11-22T02:03:11.145Z,50.885559
2022-11-22T02:04:11.291Z,50.885597
2022-11-22T02:05:11.149Z,50.885670
2022-11-22T02:06:11.059Z,50.885689
2022-11-22T02:07:11.123Z,50.885674
2022-11-22T02:08:11.084Z,50.885609
2022-11-22T02:09:11.174Z,50.885651
2022-11-22T02:10:11.060Z,50.885662
2022-11-22T02:11:11.042Z,50.885574
2022-11-22T02:12:11.056Z,50.885616
2022-11-22T02:13:11.051Z,50.885612
2022-11-22T02:14:11.059Z,50.885674
2022-11-22T02:15:11.072Z,50.885654
2022-11-22T02:16:11.015Z,50.885647
2022-11-22T02:17:11.042Z,50.885605
2022-11-22T02:18:11.050Z,50.885612
2022-11-22T02:19:11.019Z,50.885639
2022-11-22T02:20:11.041Z,50.885700
2022-11-22T02:21:11.003Z,50.885609
2022-11-22T02:22:11.016Z,50.885715
2022-11-22T02:23:10.999Z,50.885742
2022-11-22T02:24:10.983Z,50.885807
2022-11-22T02:25:10.976Z,50.885727
2022-11-22T02:26:11.005Z,50.885700
2022-11-22T02:27:11.863Z,50.885635
2022-11-22T02:28:10.977Z,50.885593
2022-11-22T02:29:10.980Z,50.885654
2022-11-22T02:30:10.939Z,50.885612
2022-11-22T02:31:11.295Z,50.885590
2022-11-22T02:32:10.991Z,50.885632
2022-11-22T02:33:10.929Z,50.885567
2022-11-22T02:34:10.953Z,50.885498
2022-11-22T02:35:10.929Z,50.885578
2022-11-22T02:36:10.909Z,50.885689
2022-11-22T02:37:12.000Z,50.885571
2022-11-22T02:38:10.901Z,50.885529
2022-11-22T02:39:10.918Z,50.885609
2022-11-22T02:40:10.914Z,50.885532
2022-11-22T02:41:10.923Z,50.885548
2022-11-22T02:42:10.934Z,50.885517
2022-11-22T02:43:10.927Z,50.885532
2022-11-22T02:44:10.880Z,50.885616
2022-11-22T02:45:10.855Z,50.885410
2022-11-22T02:46:10.910Z,50.885273
2022-11-22T02:47:10.899Z,50.885372
2022-11-22T02:48:10.882Z,50.885128
2022-11-22T02:49:10.870Z,50.885155
2022-11-22T02:50:10.849Z,50.885456
2022-11-22T02:51:10.852Z,50.885429
2022-11-22T02:52:10.875Z,50.885406
2022-11-22T02:53:11.698Z,50.885544
2022-11-22T02:54:10.829Z,50.885551
2022-11-22T02:55:11.387Z,50.885448
2022-11-22T02:56:10.786Z,50.885494
2022-11-22T02:57:10.816Z,50.885654
2022-11-22T02:58:10.811Z,50.885559
2022-11-22T02:59:10.819Z,50.885559
2022-11-22T03:00:10.799Z,50.885571
2022-11-22T03:01:10.847Z,50.885628
2022-11-22T03:02:10.814Z,50.885563
2022-11-22T03:03:10.765Z,50.885555
2022-11-22T03:04:10.807Z,50.885532
2022-11-22T03:05:10.755Z,50.885571
2022-11-22T03:06:10.785Z,50.885574
2022-11-22T03:07:10.843Z,50.885498
2022-11-22T03:08:10.725Z,50.885483
2022-11-22T03:09:10.784Z,50.885551
2022-11-22T03:10:10.775Z,50.885563
2022-11-22T03:11:10.754Z,50.885567
2022-11-22T03:12:10.733Z,50.885605
2022-11-22T03:13:10.755Z,50.885715
2022-11-22T03:14:10.737Z,50.885616
2022-11-22T03:15:10.700Z,50.885494
2022-11-22T03:16:10.731Z,50.885567
2022-11-22T03:17:10.739Z,50.885624
2022-11-22T03:18:10.720Z,50.885540
2022-11-22T03:19:10.700Z,50.885609
2022-11-22T03:20:10.683Z,50.885582
2022-11-22T03:21:10.714Z,50.885509
2022-11-22T03:22:11.736Z,50.885471
2022-11-22T03:23:11.659Z,50.885521
2022-11-22T03:24:10.676Z,50.885674
2022-11-22T03:25:10.684Z,50.885696
2022-11-22T03:26:10.724Z,50.885681
2022-11-22T03:27:10.681Z,50.885670
2022-11-22T03:28:10.633Z,50.885475
2022-11-22T03:29:10.676Z,50.885483
2022-11-22T03:30:10.657Z,50.885525
2022-11-22T03:31:10.625Z,50.885529
2022-11-22T03:32:10.654Z,50.885513
2022-11-22T03:33:10.645Z,50.885532
2022-11-22T03:34:10.615Z,50.885651
2022-11-22T03:35:10.605Z,50.885567
2022-11-22T03:36:10.608Z,50.885555
2022-11-22T03:37:10.626Z,50.885567
2022-11-22T03:38:10.621Z,50.885532
2022-11-22T03:39:10.585Z,50.885525
2022-11-22T03:40:10.568Z,50.885521
2022-11-22T03:41:10.567Z,50.885559
2022-11-22T03:42:10.588Z,50.885662
2022-11-22T03:43:10.687Z,50.885654
2022-11-22T03:44:10.566Z,50.885582
2022-11-22T03:45:10.578Z,50.885506
2022-11-22T03:46:10.565Z,50.885639
2022-11-22T03:47:10.536Z,50.885548
2022-11-22T03:48:10.692Z,50.885548
2022-11-22T03:49:10.547Z,50.885548
2022-11-22T03:50:10.495Z,50.885548
2022-11-22T03:51:10.547Z,50.885571
2022-11-22T03:52:10.503Z,50.885593
2022-11-22T03:53:10.643Z,50.885612
2022-11-22T03:54:10.487Z,50.885502
2022-11-22T03:55:10.503Z,50.885521
2022-11-22T03:56:10.500Z,50.885567
2022-11-22T03:57:10.526Z,50.885704
2022-11-22T03:58:10.500Z,50.885559
2022-11-22T03:59:10.487Z,50.885517
2022-11-22T04:00:10.479Z,50.885433
2022-11-22T04:01:16.146Z,50.885529
2022-11-22T04:02:12.543Z,50.885593
2022-11-22T04:03:10.459Z,50.885620
2022-11-22T04:04:10.513Z,50.885639
2022-11-22T04:05:10.431Z,50.885712
2022-11-22T04:06:10.447Z,50.885647
2022-11-22T04:07:10.468Z,50.885578
2022-11-22T04:08:10.453Z,50.885551
2022-11-22T04:09:10.526Z,50.885582
2022-11-22T04:10:10.432Z,50.885548
2022-11-22T04:11:10.400Z,50.885525
2022-11-22T04:12:10.415Z,50.885525
2022-11-22T04:13:10.411Z,50.885586
2022-11-22T04:14:10.428Z,50.885536
2022-11-22T04:15:11.509Z,50.885574
2022-11-22T04:16:10.370Z,50.885559
2022-11-22T04:17:10.411Z,50.885521
2022-11-22T04:18:10.372Z,50.885590
2022-11-22T04:19:10.390Z,50.885593
2022-11-22T04:20:10.364Z,50.885609
2022-11-22T04:21:10.470Z,50.885685
2022-11-22T04:22:10.338Z,50.885628
2022-11-22T04:23:10.338Z,50.885654
2022-11-22T04:24:10.351Z,50.885544
2022-11-22T04:25:10.324Z,50.885578
2022-11-22T04:26:10.360Z,50.885609
2022-11-22T04:27:10.314Z,50.885601
2022-11-22T04:28:10.322Z,50.885548
2022-11-22T04:29:10.706Z,50.885498
2022-11-22T04:30:13.766Z,50.885601
2022-11-22T04:31:11.343Z,50.885624
2022-11-22T04:32:10.277Z,50.885700
2022-11-22T04:33:10.293Z,50.885624
2022-11-22T04:34:10.313Z,50.885609
2022-11-22T04:35:10.276Z,50.885426
2022-11-22T04:36:13.339Z,50.885612
2022-11-22T04:37:11.366Z,50.885704
2022-11-22T04:38:10.269Z,50.885693
2022-11-22T04:39:10.244Z,50.885647
2022-11-22T04:40:10.311Z,50.885551
2022-11-22T04:41:10.236Z,50.885609
2022-11-22T04:42:10.248Z,50.885628
2022-11-22T04:43:10.253Z,50.885639
2022-11-22T04:44:10.270Z,50.885498
2022-11-22T04:45:10.281Z,50.885479
2022-11-22T04:46:10.229Z,50.885567
2022-11-22T04:47:10.225Z,50.885452
2022-11-22T04:48:10.265Z,50.885460
2022-11-22T04:49:10.222Z,50.885265
2022-11-22T04:50:10.283Z,50.885422
2022-11-22T04:51:10.180Z,50.885487
2022-11-22T04:52:10.188Z,50.885231
2022-11-22T04:53:10.204Z,50.885017
2022-11-22T04:54:10.229Z,50.885483
2022-11-22T04:55:10.197Z,50.885681
2022-11-22T04:56:10.212Z,50.885601
2022-11-22T04:57:10.163Z,50.885624
2022-11-22T04:58:10.148Z,50.885513
2022-11-22T04:59:10.199Z,50.885605
2022-11-22T05:00:10.176Z,50.885639
2022-11-22T05:01:10.177Z,50.885601
2022-11-22T05:02:10.126Z,50.885597
2022-11-22T05:03:10.144Z,50.885609
2022-11-22T05:04:10.150Z,50.885544
2022-11-22T05:05:10.208Z,50.885498
2022-11-22T05:06:10.147Z,50.885559
2022-11-22T05:07:10.085Z,50.885571
2022-11-22T05:08:10.123Z,50.885559
2022-11-22T05:09:10.111Z,50.885609
2022-11-22T05:10:10.227Z,50.885632
2022-11-22T05:11:10.085Z,50.885529
2022-11-22T05:12:10.094Z,50.885437
2022-11-22T05:13:10.045Z,50.885612
2022-11-22T05:14:10.057Z,50.885487
2022-11-22T05:15:10.020Z,50.885506
2022-11-22T05:16:10.053Z,50.885487
2022-11-22T05:17:13.155Z,50.885418
2022-11-22T05:18:11.045Z,50.885677
2022-11-22T05:19:10.016Z,50.885559
2022-11-22T05:20:10.083Z,50.885628
2022-11-22T05:21:10.180Z,50.885487
2022-11-22T05:22:10.027Z,50.885513
2022-11-22T05:23:10.031Z,50.885555
2022-11-22T05:24:10.022Z,50.885571
2022-11-22T05:25:10.052Z,50.885468
2022-11-22T05:26:10.030Z,50.885563
2022-11-22T05:27:10.001Z,50.885582
2022-11-22T05:28:10.041Z,50.885639
2022-11-22T05:29:10.015Z,50.885506
2022-11-22T05:30:09.962Z,50.885532
2022-11-22T05:31:09.967Z,50.885563
2022-11-22T05:32:10.000Z,50.885590
2022-11-22T05:33:10.013Z,50.885597
2022-11-22T05:34:09.965Z,50.885506
2022-11-22T05:35:09.967Z,50.885532
2022-11-22T05:36:09.954Z,50.885616
2022-11-22T05:37:09.958Z,50.885460
2022-11-22T05:38:09.990Z,50.885361
2022-11-22T05:39:09.937Z,50.885456
2022-11-22T05:40:09.923Z,50.885384
2022-11-22T05:41:09.949Z,50.885632
2022-11-22T05:42:09.912Z,50.885551
2022-11-22T05:43:09.931Z,50.885334
2022-11-22T05:44:09.867Z,50.885460
2022-11-22T05:45:09.955Z,50.885456
2022-11-22T05:46:09.884Z,50.885582
2022-11-22T05:47:09.877Z,50.885567
2022-11-22T05:48:09.893Z,50.885475
2022-11-22T05:49:09.899Z,50.885513
2022-11-22T05:50:10.085Z,50.885517
2022-11-22T05:51:09.860Z,50.885544
2022-11-22T05:52:09.820Z,50.885513
2022-11-22T05:53:09.850Z,50.885582
2022-11-22T05:54:09.924Z,50.885643
2022-11-22T05:55:09.846Z,50.885590
2022-11-22T05:56:09.859Z,50.885529
2022-11-22T05:57:09.844Z,50.885559
2022-11-22T05:58:09.836Z,50.885532
2022-11-22T05:59:09.800Z,50.885529
2022-11-22T06:00:09.823Z,50.885448
2022-11-22T06:01:09.822Z,50.885586
2022-11-22T06:02:09.925Z,50.885685
2022-11-22T06:03:09.829Z,50.885651
2022-11-22T06:04:09.796Z,50.885502
2022-11-22T06:05:09.832Z,50.885700
2022-11-22T06:06:09.770Z,50.885632
2022-11-22T06:07:10.396Z,50.885384
2022-11-22T06:08:09.776Z,50.885441
2022-11-22T06:09:09.741Z,50.885574
2022-11-22T06:10:09.765Z,50.885551
2022-11-22T06:11:09.855Z,50.885479
2022-11-22T06:12:09.787Z,50.885323
2022-11-22T06:13:09.757Z,50.885471
2022-11-22T06:14:09.735Z,50.885639
2022-11-22T06:15:09.704Z,50.885551
2022-11-22T06:16:09.746Z,50.885605
2022-11-22T06:17:09.737Z,50.885521
2022-11-22T06:18:09.697Z,50.885593
2022-11-22T06:19:09.727Z,50.885639
2022-11-22T06:20:09.740Z,50.885658
2022-11-22T06:21:09.719Z,50.885525
2022-11-22T06:22:09.760Z,50.885403
2022-11-22T06:23:09.663Z,50.885410
2022-11-22T06:24:09.656Z,50.885429
2022-11-22T06:25:09.661Z,50.885525
2022-11-22T06:26:09.660Z,50.885540
2022-11-22T06:27:09.686Z,50.885498
2022-11-22T06:28:09.641Z,50.885250
2022-11-22T06:29:09.677Z,50.885414
2022-11-22T06:30:10.683Z,50.885517
2022-11-22T06:31:09.630Z,50.885532
2022-11-22T06:32:09.644Z,50.885521
2022-11-22T06:33:09.696Z,50.885540
2022-11-22T06:34:09.602Z,50.885498
2022-11-22T06:35:09.617Z,50.885498
2022-11-22T06:36:09.611Z,50.885498
2022-11-22T06:37:09.624Z,50.885475
2022-11-22T06:38:09.638Z,50.885494
2022-11-22T06:39:09.599Z,50.885571
2022-11-22T06:40:09.562Z,50.885696
2022-11-22T06:41:09.579Z,50.885555
2022-11-22T06:42:09.550Z,50.885311
2022-11-22T06:43:09.557Z,50.885502
2022-11-22T06:44:10.027Z,50.885582
2022-11-22T06:45:09.595Z,50.885551
2022-11-22T06:46:09.563Z,50.885593
2022-11-22T06:47:09.559Z,50.885590
2022-11-22T06:48:09.511Z,50.885468
2022-11-22T06:49:09.551Z,50.885361
2022-11-22T06:50:09.550Z,50.885326
2022-11-22T06:51:09.500Z,50.885399
2022-11-22T06:52:09.519Z,50.885292
2022-11-22T06:53:26.346Z,50.885445
2022-11-22T06:54:11.608Z,50.885540
2022-11-22T06:55:34.550Z,50.885597
2022-11-22T06:56:09.509Z,50.885540
2022-11-22T06:57:09.525Z,50.885521
2022-11-22T06:58:09.453Z,50.885490
2022-11-22T06:59:09.468Z,50.885521
2022-11-22T07:00:09.479Z,50.885529
2022-11-22T07:01:09.524Z,50.885536
2022-11-22T07:02:09.439Z,50.885460
2022-11-22T07:03:09.443Z,50.885529
2022-11-22T07:04:09.430Z,50.885632
2022-11-22T07:05:25.240Z,50.885628
2022-11-22T07:06:11.434Z,50.885571
2022-11-22T07:07:09.479Z,50.885395
2022-11-22T07:08:13.805Z,50.885525
2022-11-22T07:09:10.406Z,50.885605
2022-11-22T07:10:09.382Z,50.885624
2022-11-22T07:11:09.515Z,50.885555
2022-11-22T07:12:09.380Z,50.885551
2022-11-22T07:13:09.352Z,50.885616
2022-11-22T07:14:09.721Z,50.885593
2022-11-22T07:15:10.358Z,50.885571
2022-11-22T07:16:09.378Z,50.885529
2022-11-22T07:17:09.363Z,50.885502
2022-11-22T07:18:09.360Z,50.885567
2022-11-22T07:19:09.336Z,50.885555
2022-11-22T07:20:09.322Z,50.885529
2022-11-22T07:21:12.754Z,50.885506
2022-11-22T07:22:10.375Z,50.885441
2022-11-22T07:23:09.377Z,50.885403
2022-11-22T07:24:09.282Z,50.885441
2022-11-22T07:25:09.312Z,50.885498
2022-11-22T07:26:09.296Z,50.885540
2022-11-22T07:27:09.271Z,50.885479
2022-11-22T07:28:09.279Z,50.885315
2022-11-22T07:29:09.267Z,50.885448
2022-11-22T07:30:09.279Z,50.885487
2022-11-22T07:31:09.335Z,50.885403
2022-11-22T07:32:09.272Z,50.885544
2022-11-22T07:33:09.327Z,50.885593
2022-11-22T07:34:09.346Z,50.885536
2022-11-22T07:35:09.232Z,50.885509
2022-11-22T07:36:09.250Z,50.885456
2022-11-22T07:37:09.512Z,50.885437
2022-11-22T07:38:10.254Z,50.885498
2022-11-22T07:39:09.212Z,50.885509
2022-11-22T07:40:09.224Z,50.885433
2022-11-22T07:41:09.344Z,50.885406
2022-11-22T07:42:09.282Z,50.885391
2022-11-22T07:43:09.187Z,50.885468
2022-11-22T07:44:09.199Z,50.885658
2022-11-22T07:45:09.178Z,50.885643
2022-11-22T07:46:09.186Z,50.885574
2022-11-22T07:47:09.159Z,50.885597
2022-11-22T07:48:09.169Z,50.885586
2022-11-22T07:49:09.131Z,50.885674
2022-11-22T07:50:09.128Z,50.885540
2022-11-22T07:51:09.125Z,50.885685
2022-11-22T07:52:09.836Z,50.885548
2022-11-22T07:53:09.471Z,50.885544
2022-11-22T07:54:09.092Z,50.885696
2022-11-22T07:55:13.813Z,50.885593
2022-11-22T07:56:10.100Z,50.885540
2022-11-22T07:57:09.745Z,50.885567
2022-11-22T07:58:09.091Z,50.885685
2022-11-22T07:59:09.121Z,50.885616
2022-11-22T08:00:09.114Z,50.885799
2022-11-22T08:01:09.206Z,50.885841
2022-11-22T08:02:09.205Z,50.885918
2022-11-22T08:03:09.063Z,50.885990
2022-11-22T08:04:09.069Z,50.885918
2022-11-22T08:05:09.065Z,50.885777
2022-11-22T08:06:09.134Z,50.885612
2022-11-22T08:07:09.062Z,50.885639
2022-11-22T08:08:09.063Z,50.885647
2022-11-22T08:09:09.043Z,50.885693
2022-11-22T08:10:09.034Z,50.885677
2022-11-22T08:11:08.996Z,50.885590
2022-11-22T08:12:09.013Z,50.885582
2022-11-22T08:13:09.002Z,50.885513
2022-11-22T08:14:08.997Z,50.885548
2022-11-22T08:15:09.000Z,50.885548
2022-11-22T08:16:09.074Z,50.885544
2022-11-22T08:17:08.995Z,50.885498
2022-11-22T08:18:08.964Z,50.885437
2022-11-22T08:19:08.972Z,50.885525
2022-11-22T08:20:08.938Z,50.885593
2022-11-22T08:21:08.965Z,50.885563
2022-11-22T08:22:09.032Z,50.885578
2022-11-22T08:23:08.929Z,50.885487
2022-11-22T08:24:08.958Z,50.885452
2022-11-22T08:25:08.909Z,50.885487
2022-11-22T08:26:09.045Z,50.885540
2022-11-22T08:27:08.916Z,50.885464
2022-11-22T08:28:08.913Z,50.885483
2022-11-22T08:29:13.941Z,50.885475
2022-11-22T08:30:10.890Z,50.885479
2022-11-22T08:31:08.914Z,50.885414
2022-11-22T08:32:08.937Z,50.885395
2022-11-22T08:33:08.895Z,50.885517
2022-11-22T08:34:09.416Z,50.885487
2022-11-22T08:35:09.886Z,50.885502
2022-11-22T08:36:08.868Z,50.885578
2022-11-22T08:37:08.875Z,50.885452
2022-11-22T08:38:08.933Z,50.885460
2022-11-22T08:39:08.822Z,50.885509
2022-11-22T08:40:08.844Z,50.885532
2022-11-22T08:41:08.826Z,50.885521
2022-11-22T08:42:08.822Z,50.885487
2022-11-22T08:43:08.841Z,50.885563
2022-11-22T08:44:08.817Z,50.885490
2022-11-22T08:45:08.796Z,50.885548
2022-11-22T08:46:08.803Z,50.885448
2022-11-22T08:47:08.770Z,50.885509
2022-11-22T08:48:08.816Z,50.885490
2022-11-22T08:49:08.751Z,50.885456
2022-11-22T08:50:08.744Z,50.885635
2022-11-22T08:51:08.745Z,50.885529
2022-11-22T08:52:08.770Z,50.885555
2022-11-22T08:53:08.764Z,50.885403
2022-11-22T08:54:09.421Z,50.885452
2022-11-22T08:55:08.740Z,50.885464
2022-11-22T08:56:08.749Z,50.885513
2022-11-22T08:57:08.730Z,50.885548
2022-11-22T08:58:08.714Z,50.885487
2022-11-22T08:59:08.956Z,50.885529
2022-11-22T09:00:08.735Z,50.885586
2022-11-22T09:01:08.757Z,50.885525
2022-11-22T09:02:08.702Z,50.885506
2022-11-22T09:03:08.694Z,50.885529
2022-11-22T09:04:08.699Z,50.885509
2022-11-22T09:05:08.812Z,50.885590
2022-11-22T09:08:26.592Z,50.885475
2022-11-22T09:10:09.890Z,50.885681
2022-11-22T09:11:08.664Z,50.885609
2022-11-22T09:12:08.627Z,50.885567
2022-11-22T09:13:08.631Z,50.885468
2022-11-22T09:14:08.618Z,50.885555
2022-11-22T09:15:08.646Z,50.885532
2022-11-22T09:16:08.651Z,50.885513
2022-11-22T09:17:11.998Z,50.885475
2022-11-22T09:18:08.576Z,50.885414
2022-11-22T09:19:08.572Z,50.885468
2022-11-22T09:20:08.594Z,50.885368
2022-11-22T09:21:08.616Z,50.885368
2022-11-22T09:22:08.593Z,50.885353
2022-11-22T09:23:08.592Z,50.885273
2022-11-22T09:24:08.556Z,50.885372
2022-11-22T09:25:08.578Z,50.885376
2022-11-22T09:26:08.519Z,50.885418
2022-11-22T09:27:08.696Z,50.885452
2022-11-22T09:28:08.543Z,50.885441
2022-11-22T09:29:08.590Z,50.885368
2022-11-22T09:30:08.507Z,50.885471
2022-11-22T09:31:08.493Z,50.885471
2022-11-22T09:32:08.639Z,50.885429
2022-11-22T09:33:08.503Z,50.885456
2022-11-22T09:34:08.512Z,50.885796
2022-11-22T09:35:08.460Z,50.885647
2022-11-22T09:36:08.488Z,50.885563
2022-11-22T09:37:08.493Z,50.885601
2022-11-22T09:38:08.597Z,50.885674
2022-11-22T09:39:08.463Z,50.885799
2022-11-22T09:40:08.454Z,50.885654
2022-11-22T09:41:08.486Z,50.885601
2022-11-22T09:42:08.507Z,50.885513
2022-11-22T09:43:08.458Z,50.885693
2022-11-22T09:44:08.443Z,50.885437
2022-11-22T09:45:08.413Z,50.885303
2022-11-22T09:46:08.441Z,50.885574
2022-11-22T09:47:08.392Z,50.885662
2022-11-22T09:48:10.099Z,50.885780
2022-11-22T09:49:09.552Z,50.885571
2022-11-22T09:50:08.431Z,50.885281
2022-11-22T09:51:08.397Z,50.885120
2022-11-22T09:52:08.395Z,50.884892
2022-11-22T09:53:08.370Z,50.885406
2022-11-22T09:54:08.357Z,50.885796
2022-11-22T09:55:08.365Z,50.885609
2022-11-22T09:56:08.403Z,50.885551
2022-11-22T09:57:08.362Z,50.885468
2022-11-22T09:58:08.410Z,50.885406
2022-11-22T09:59:08.370Z,50.885323
2022-11-22T10:00:08.476Z,50.885262
2022-11-22T10:01:08.417Z,50.885052
2022-11-22T10:02:18.371Z,50.885628
2022-11-22T10:03:08.350Z,50.885628
2022-11-22T10:04:08.313Z,50.885662
2022-11-22T10:05:08.329Z,50.885384
2022-11-22T10:06:08.400Z,50.885651
2022-11-22T10:07:08.349Z,50.885551
2022-11-22T10:08:08.293Z,50.885357
2022-11-22T10:09:08.255Z,50.885738
2022-11-22T10:10:08.281Z,50.885456
2022-11-22T10:11:08.302Z,50.885689
2022-11-22T10:12:08.275Z,50.885830
2022-11-22T10:13:08.283Z,50.885487
2022-11-22T10:14:08.451Z,50.885384
2022-11-22T10:15:08.227Z,50.885464
2022-11-22T10:16:08.233Z,50.885284
2022-11-22T10:17:08.352Z,50.885223
2022-11-22T10:18:09.208Z,50.885193
2022-11-22T10:19:08.221Z,50.884827
2022-11-22T10:20:08.276Z,50.885395
2022-11-22T10:21:08.262Z,50.885147
2022-11-22T10:22:08.252Z,50.885674
2022-11-22T10:23:08.240Z,50.885220
2022-11-22T10:24:08.217Z,50.885429
2022-11-22T10:25:08.277Z,50.885178
2022-11-22T10:26:08.191Z,50.885326
2022-11-22T10:27:08.218Z,50.885429
2022-11-22T10:28:08.178Z,50.885490
2022-11-22T10:29:08.166Z,50.885323
2022-11-22T10:30:08.232Z,50.885368
2022-11-22T10:31:08.153Z,50.885460
2022-11-22T10:32:08.159Z,50.885372
2022-11-22T10:33:08.208Z,50.885498
2022-11-22T10:34:08.143Z,50.885448
2022-11-22T10:35:08.139Z,50.885452
2022-11-22T10:36:08.136Z,50.885517
2022-11-22T10:37:08.135Z,50.885422
2022-11-22T10:38:08.142Z,50.885460
2022-11-22T10:39:08.147Z,50.885593
2022-11-22T10:40:08.103Z,50.885525
2022-11-22T10:41:08.104Z,50.885513
2022-11-22T10:42:08.102Z,50.885574
2022-11-22T10:43:08.068Z,50.885609
2022-11-22T10:44:08.178Z,50.885574
2022-11-22T10:45:08.047Z,50.885540
2022-11-22T10:46:08.150Z,50.885468
2022-11-22T10:47:08.101Z,50.885323
2022-11-22T10:48:08.027Z,50.885330
2022-11-22T10:49:08.035Z,50.885647
2022-11-22T10:50:08.125Z,50.885567
2022-11-22T10:51:08.029Z,50.885506
2022-11-22T10:52:08.044Z,50.885563
2022-11-22T10:53:08.005Z,50.885941
2022-11-22T10:54:07.981Z,50.886028
2022-11-22T10:55:08.005Z,50.885628
2022-11-22T10:56:07.992Z,50.885460
2022-11-22T10:57:07.971Z,50.885395
2022-11-22T10:58:08.010Z,50.885277
2022-11-22T10:59:07.967Z,50.885216
2022-11-22T11:00:07.977Z,50.885246
2022-11-22T11:01:08.041Z,50.885166
2022-11-22T11:02:08.056Z,50.885273
2022-11-22T11:03:07.944Z,50.885151
2022-11-22T11:04:07.928Z,50.885166
2022-11-22T11:05:07.964Z,50.885193
2022-11-22T11:06:22.653Z,50.885212
2022-11-22T11:07:12.444Z,50.885292
2022-11-22T11:08:35.395Z,50.885422
2022-11-22T11:10:09.181Z,50.885132
2022-11-22T11:10:12.111Z,50.884979
2022-11-22T11:11:08.931Z,50.884846
2022-11-22T11:12:07.882Z,50.885025
2022-11-22T11:13:07.905Z,50.885086
2022-11-22T11:14:07.897Z,50.885254
2022-11-22T11:15:07.873Z,50.885544
2022-11-22T11:16:07.857Z,50.885487
2022-11-22T11:17:07.894Z,50.885475
2022-11-22T11:18:07.935Z,50.885464
2022-11-22T11:19:07.834Z,50.885475
2022-11-22T11:20:07.844Z,50.885315
2022-11-22T11:21:07.864Z,50.885250
2022-11-22T11:22:07.824Z,50.885403
2022-11-22T11:23:14.815Z,50.885349
2022-11-22T11:24:08.835Z,50.885303
2022-11-22T11:25:07.872Z,50.885338
2022-11-22T11:26:07.770Z,50.885166
2022-11-22T11:27:07.813Z,50.885361